Time;durP1;ratioP1;P1;durP2;ratioP2;P2;SDS_P1;SDS_P2;PMS_P1;PMS_P2;Temp;Humidity;BMP_temperature;BMP_pressure;BME280_temperature;BME280_humidity;BME280_pressure;Samples;Min_cycle;Max_cycle;Signal;HPM_P1;HPM_P2
2023/05/18 00:02:20;;;;;;;9.40;7.40;;;;;;;8.94;83.95;97635.68;108907;1251;95560;-76
2023/05/18 00:04:48;;;;;;;8.60;7.50;;;;;;;8.95;83.91;97634.65;108910;1251;96005;-77
2023/05/18 00:07:16;;;;;;;9.20;8.00;;;;;;;8.94;83.91;97633.45;108941;1251;103515;-76
2023/05/18 00:09:44;;;;;;;11.00;6.90;;;;;;;8.92;83.87;97633.29;108923;1251;101150;-74
2023/05/18 00:12:12;;;;;;;8.40;6.80;;;;;;;8.92;83.93;97630.30;108885;1251;100017;-75
2023/05/18 00:14:40;;;;;;;7.40;6.40;;;;;;;8.91;83.93;97629.30;108811;1250;95555;-77
2023/05/18 00:17:08;;;;;;;7.90;6.90;;;;;;;8.91;84.14;97632.48;108928;1250;95968;-78
2023/05/18 00:19:36;;;;;;;7.80;7.00;;;;;;;8.91;84.08;97632.20;108927;1251;103273;-76
2023/05/18 00:22:06;;;;;;;9.30;6.80;;;;;;;8.86;83.98;97631.16;108897;1251;101480;-74
2023/05/18 00:24:34;;;;;;;8.10;6.30;;;;;;;8.81;84.00;97629.38;108934;1252;100033;-74
2023/05/18 00:27:02;;;;;;;11.20;7.90;;;;;;;8.76;84.19;97631.36;108818;1251;95830;-75
2023/05/18 00:29:30;;;;;;;9.70;7.70;;;;;;;8.78;84.28;97630.10;108862;1251;96222;-74
2023/05/18 00:31:58;;;;;;;9.30;8.40;;;;;;;8.79;84.32;97626.63;108904;1251;103638;-75
2023/05/18 00:34:26;;;;;;;9.00;8.00;;;;;;;8.79;84.35;97629.27;108869;1250;101491;-75
2023/05/18 00:36:54;;;;;;;9.50;8.10;;;;;;;8.79;84.49;97631.02;108870;1251;100025;-73
2023/05/18 00:39:22;;;;;;;7.80;7.00;;;;;;;8.80;84.40;97631.45;108799;1251;95646;-76
2023/05/18 00:41:50;;;;;;;8.20;7.20;;;;;;;8.81;84.36;97627.77;108939;1251;96006;-74
2023/05/18 00:44:18;;;;;;;11.20;7.60;;;;;;;8.82;84.41;97627.75;108910;1251;103356;-74
2023/05/18 00:46:46;;;;;;;8.70;6.70;;;;;;;8.82;84.27;97628.41;108905;1254;101410;-74
2023/05/18 00:49:15;;;;;;;10.10;7.60;;;;;;;8.84;84.34;97630.80;108832;1251;107428;-76
2023/05/18 00:51:44;;;;;;;8.20;6.80;;;;;;;8.85;84.27;97632.26;108846;1251;95556;-77
2023/05/18 00:54:12;;;;;;;8.70;7.70;;;;;;;8.84;84.30;97634.07;108910;1250;95988;-74
2023/05/18 00:56:41;;;;;;;9.80;7.70;;;;;;;8.87;84.51;97639.52;108963;1250;103118;-74
2023/05/18 00:59:10;;;;;;;10.70;7.80;;;;;;;8.89;84.44;97643.35;108592;1251;100583;-76
2023/05/18 01:01:42;;;;;;;9.40;6.80;;;;;;;8.91;84.39;97642.73;108890;1250;100022;-74
2023/05/18 01:04:12;;;;;;;8.10;6.90;;;;;;;8.93;84.44;97648.79;108931;1251;95563;-74
2023/05/18 01:06:42;;;;;;;9.90;7.70;;;;;;;8.93;84.26;97648.24;108843;1250;96510;-77
2023/05/18 01:09:12;;;;;;;9.10;6.90;;;;;;;8.94;84.29;97648.36;108953;1251;103666;-77
2023/05/18 01:11:48;;;;;;;8.50;6.50;;;;;;;8.96;84.32;97647.54;108862;1250;101146;-78
2023/05/18 01:14:26;;;;;;;10.10;6.60;;;;;;;8.98;84.40;97651.41;108856;1249;108324;-75
2023/05/18 01:17:06;;;;;;;9.30;6.60;;;;;;;8.98;84.26;97650.59;108580;1250;95636;-75
2023/05/18 01:19:49;;;;;;;9.90;6.50;;;;;;;8.99;84.21;97650.31;108698;1251;96157;-74
2023/05/18 01:22:23;;;;;;;9.10;6.70;;;;;;;9.00;84.23;97652.05;108947;1250;102265;-74
2023/05/18 01:24:58;;;;;;;8.90;7.00;;;;;;;8.97;84.11;97652.60;108632;1251;102128;-75
2023/05/18 01:27:26;;;;;;;9.20;6.50;;;;;;;8.93;84.13;97652.23;108817;1251;98971;-76
2023/05/18 01:29:56;;;;;;;8.90;6.80;;;;;;;8.86;84.13;97648.79;108885;1251;95531;-75
2023/05/18 01:32:24;;;;;;;8.70;6.80;;;;;;;8.83;84.26;97649.46;109005;1250;96115;-75
2023/05/18 01:34:52;;;;;;;9.40;6.70;;;;;;;8.82;84.38;97644.83;108962;1251;103862;-75
2023/05/18 01:37:20;;;;;;;7.60;6.30;;;;;;;8.80;84.35;97644.77;108881;1250;101833;-79
2023/05/18 01:39:48;;;;;;;10.30;6.30;;;;;;;8.76;84.44;97643.41;108853;1250;99971;-77
2023/05/18 01:42:26;;;;;;;10.70;7.60;;;;;;;8.72;84.38;97647.14;108890;1250;95583;-75
2023/05/18 01:45:02;;;;;;;9.90;7.10;;;;;;;8.69;84.48;97646.67;108838;1251;95970;-78
2023/05/18 01:47:33;;;;;;;10.30;7.40;;;;;;;8.68;84.67;97650.63;108938;1250;103979;-78
2023/05/18 01:50:06;;;;;;;9.80;7.20;;;;;;;8.65;84.65;97651.30;108856;1250;100440;-76
2023/05/18 01:52:58;;;;;;;8.40;7.50;;;;;;;8.64;84.69;97649.94;108845;1250;99937;-75
2023/05/18 01:55:30;;;;;;;8.40;7.40;;;;;;;8.65;84.86;97649.48;108853;1251;95839;-75
2023/05/18 01:57:59;;;;;;;;;;;;;;;8.66;84.87;97650.65;108907;1251;95702;-75
2023/05/18 02:00:27;;;;;;;9.40;7.90;;;;;;;8.66;84.91;97649.05;108959;1250;103271;-75
2023/05/18 02:02:55;;;;;;;8.10;7.00;;;;;;;8.68;85.09;97648.04;108864;1251;101294;-75
2023/05/18 02:05:23;;;;;;;8.50;7.20;;;;;;;8.66;84.91;97647.42;108611;1250;100635;-76
2023/05/18 02:07:51;;;;;;;8.70;7.40;;;;;;;8.65;84.89;97644.85;108856;1251;95560;-75
2023/05/18 02:10:19;;;;;;;7.70;6.90;;;;;;;8.65;84.94;97640.34;108863;1251;96025;-77
2023/05/18 02:12:51;;;;;;;8.10;7.20;;;;;;;8.62;84.99;97643.48;108903;1251;103758;-75
2023/05/18 02:15:20;;;;;;;9.70;7.70;;;;;;;8.58;85.03;97643.61;108934;1250;101569;-78
2023/05/18 02:17:48;;;;;;;11.80;8.30;;;;;;;8.59;85.06;97642.58;108843;1250;100202;-75
2023/05/18 02:20:17;;;;;;;8.00;6.90;;;;;;;8.59;85.16;97643.55;108887;1250;95618;-76
2023/05/18 02:22:45;;;;;;;9.40;7.80;;;;;;;8.58;85.15;97641.91;108922;1251;96040;-73
2023/05/18 02:25:13;;;;;;;10.20;8.20;;;;;;;8.61;85.23;97642.48;108921;1251;103500;-75
2023/05/18 02:27:41;;;;;;;9.40;8.00;;;;;;;8.67;85.33;97641.05;108867;1250;101874;-75
2023/05/18 02:30:10;;;;;;;8.80;7.80;;;;;;;8.71;85.41;97644.61;108829;1250;100252;-75
2023/05/18 02:32:38;;;;;;;9.20;7.20;;;;;;;8.73;85.19;97643.17;108518;1250;96027;-77
2023/05/18 02:35:07;;;;;;;7.90;7.10;;;;;;;8.74;85.02;97646.91;108647;1250;96461;-75
2023/05/18 02:37:38;;;;;;;9.40;6.80;;;;;;;8.77;85.18;97650.38;108887;1250;103602;-78
2023/05/18 02:40:11;;;;;;;7.80;6.90;;;;;;;8.80;85.21;97652.45;108913;1250;101519;-76
2023/05/18 02:42:39;;;;;;;7.20;6.50;;;;;;;8.81;85.19;97652.48;108376;1251;99192;-76
2023/05/18 02:45:07;;;;;;;8.00;6.60;;;;;;;8.81;85.17;97654.05;108544;1250;95661;-74
2023/05/18 02:47:36;;;;;;;7.90;6.40;;;;;;;8.84;85.20;97658.25;108675;1251;95965;-75
2023/05/18 02:50:04;;;;;;;6.60;5.90;;;;;;;8.82;85.11;97659.23;108912;1250;103574;-78
2023/05/18 02:52:32;;;;;;;7.60;6.70;;;;;;;8.77;85.06;97655.92;108713;1250;101752;-77
2023/05/18 02:55:00;;;;;;;8.40;7.50;;;;;;;8.74;85.14;97659.42;108894;1250;99580;-75
2023/05/18 02:57:28;;;;;;;8.10;7.30;;;;;;;8.74;85.18;97658.80;108825;1250;95564;-75
2023/05/18 02:59:57;;;;;;;8.90;8.00;;;;;;;8.72;85.17;97659.52;108913;1250;96003;-75
2023/05/18 03:02:26;;;;;;;9.10;7.80;;;;;;;8.68;85.11;97661.89;108887;1250;103407;-77
2023/05/18 03:04:56;;;;;;;11.20;8.00;;;;;;;8.61;85.11;97662.61;108881;1250;101223;-75
2023/05/18 03:07:26;;;;;;;9.80;8.10;;;;;;;8.54;85.33;97670.46;108867;1250;99867;-75
2023/05/18 03:09:54;;;;;;;9.00;7.90;;;;;;;8.52;85.42;97671.79;108872;1250;95761;-75
2023/05/18 03:12:22;;;;;;;9.50;8.30;;;;;;;8.50;85.56;97671.64;108967;1250;95967;-76
2023/05/18 03:14:50;;;;;;;8.60;7.80;;;;;;;8.49;85.65;97675.80;108837;1250;103340;-75
2023/05/18 03:17:18;;;;;;;9.20;8.10;;;;;;;8.49;85.64;97678.47;108863;1250;101551;-75
2023/05/18 03:19:46;;;;;;;9.10;6.90;;;;;;;8.52;85.74;97684.02;108893;1250;100030;-75
2023/05/18 03:22:14;;;;;;;9.10;7.10;;;;;;;8.57;85.65;97681.70;108974;1250;95519;-74
2023/05/18 03:24:43;;;;;;;9.20;7.30;;;;;;;8.61;85.57;97681.19;108806;1251;96007;-74
2023/05/18 03:27:15;;;;;;;8.60;7.30;;;;;;;8.64;85.67;97688.17;108786;1251;103468;-75
2023/05/18 03:29:43;;;;;;;6.80;6.00;;;;;;;8.67;85.57;97689.09;108781;1251;101329;-75
2023/05/18 03:32:11;;;;;;;7.20;5.70;;;;;;;8.69;85.56;97690.39;108760;1251;100032;-74
2023/05/18 03:34:39;;;;;;;7.20;6.30;;;;;;;8.73;85.49;97692.07;108768;1251;95547;-78
2023/05/18 03:37:07;;;;;;;8.10;6.40;;;;;;;8.76;85.50;97693.10;108759;1251;96051;-78
2023/05/18 03:39:35;;;;;;;7.10;6.10;;;;;;;8.79;85.32;97694.71;108809;1251;103738;-74
2023/05/18 03:42:03;;;;;;;7.20;5.90;;;;;;;8.82;85.40;97698.33;108813;1251;101602;-74
2023/05/18 03:44:31;;;;;;;9.20;5.80;;;;;;;8.85;85.40;97699.19;108789;1251;99112;-75
2023/05/18 03:46:59;;;;;;;7.20;5.80;;;;;;;8.87;85.27;97703.92;108701;1251;95888;-74
2023/05/18 03:49:28;;;;;;;8.50;5.80;;;;;;;8.87;85.27;97706.04;108793;1251;96117;-75
2023/05/18 03:51:56;;;;;;;6.90;6.20;;;;;;;8.89;85.35;97710.63;108770;1251;103825;-75
2023/05/18 03:54:25;;;;;;;4.80;4.20;;;;;;;8.91;85.28;97711.30;108827;1250;101487;-78
2023/05/18 03:56:53;;;;;;;6.10;4.40;;;;;;;8.94;85.44;97715.00;108796;1251;99241;-75
2023/05/18 03:59:21;;;;;;;4.40;3.90;;;;;;;8.97;85.15;97714.08;108748;1250;95559;-73
2023/05/18 04:01:52;;;;;;;5.30;4.10;;;;;;;9.00;85.14;97718.29;108769;1251;96035;-74
2023/05/18 04:04:22;;;;;;;5.00;4.30;;;;;;;9.00;85.08;97718.63;108775;1251;103550;-77
2023/05/18 04:06:51;;;;;;;5.10;4.30;;;;;;;8.98;85.07;97722.41;108724;1251;101576;-78
2023/05/18 04:09:22;;;;;;;4.80;4.40;;;;;;;8.94;85.05;97726.02;108737;1251;98867;-74
2023/05/18 04:11:50;;;;;;;4.60;4.00;;;;;;;8.92;85.09;97729.34;108822;1249;95558;-74
2023/05/18 04:14:19;;;;;;;3.90;3.50;;;;;;;8.93;85.25;97728.92;108951;1249;96800;-74
2023/05/18 04:16:47;;;;;;;5.90;3.70;;;;;;;8.94;85.47;97728.51;108767;1251;103778;-76
2023/05/18 04:19:15;;;;;;;3.50;3.20;;;;;;;8.96;85.45;97728.94;108847;1250;110006;-73
2023/05/18 04:21:46;;;;;;;3.10;2.80;;;;;;;8.99;85.47;97727.60;108931;1249;99890;-74
2023/05/18 04:24:15;;;;;;;4.80;3.70;;;;;;;9.01;85.48;97733.67;108879;1250;95513;-73
2023/05/18 04:26:43;;;;;;;3.80;3.50;;;;;;;9.01;85.27;97733.02;108880;1250;96013;-75
2023/05/18 04:29:12;;;;;;;3.80;2.80;;;;;;;9.00;85.47;97734.37;108685;1250;104566;-75
2023/05/18 04:31:43;;;;;;;2.90;2.70;;;;;;;9.02;85.39;97736.88;108886;1250;101350;-74
2023/05/18 04:34:12;;;;;;;3.40;2.60;;;;;;;9.06;85.39;97737.40;108900;1250;99650;-73
2023/05/18 04:36:41;;;;;;;12.60;9.10;;;;;;;9.09;85.35;97739.23;108867;1250;96313;-76
2023/05/18 04:39:11;;;;;;;9.60;7.70;;;;;;;9.10;85.16;97741.25;108865;1250;96004;-73
2023/05/18 04:41:40;;;;;;;6.30;5.30;;;;;;;9.05;85.15;97745.31;108918;1250;103461;-74
2023/05/18 04:44:08;;;;;;;4.50;3.30;;;;;;;9.00;85.16;97745.14;108891;1250;101378;-73
2023/05/18 04:46:39;;;;;;;2.30;2.00;;;;;;;9.00;85.16;97750.77;108882;1250;108493;-73
2023/05/18 04:49:08;;;;;;;1.40;1.10;;;;;;;8.97;85.31;97756.09;108843;1250;95606;-74
2023/05/18 04:51:36;;;;;;;1.50;0.90;;;;;;;8.94;85.00;97759.23;108932;1250;95580;-76
2023/05/18 04:54:05;;;;;;;1.60;1.40;;;;;;;8.93;84.82;97762.59;108858;1250;102082;-74
2023/05/18 04:56:33;;;;;;;4.40;2.00;;;;;;;8.90;84.62;97768.73;108619;1250;101725;-74
2023/05/18 04:59:01;;;;;;;4.80;2.50;;;;;;;8.84;84.50;97770.52;108882;1250;100012;-74
2023/05/18 05:01:29;;;;;;;5.30;2.90;;;;;;;8.79;84.14;97774.17;108851;1250;95610;-74
2023/05/18 05:03:57;;;;;;;4.60;2.70;;;;;;;8.72;83.76;97776.61;108921;1250;97191;-76
2023/05/18 05:06:25;;;;;;;3.20;2.30;;;;;;;8.65;83.58;97788.58;108877;1250;103766;-75
2023/05/18 05:08:53;;;;;;;4.40;2.60;;;;;;;8.57;83.43;97792.02;108937;1250;101187;-76
2023/05/18 05:11:21;;;;;;;4.40;2.60;;;;;;;8.53;83.43;97795.65;108915;1250;100319;-74
2023/05/18 05:13:49;;;;;;;3.90;2.10;;;;;;;8.50;83.44;97800.63;108628;1250;95717;-75
2023/05/18 05:16:17;;;;;;;3.10;2.20;;;;;;;8.48;83.31;97809.16;108862;1250;96039;-73
2023/05/18 05:18:45;;;;;;;4.70;2.30;;;;;;;8.45;83.10;97808.85;108842;1250;103504;-74
2023/05/18 05:21:14;;;;;;;4.50;2.30;;;;;;;8.43;83.16;97810.85;108865;1250;101711;-73
2023/05/18 05:23:44;;;;;;;4.00;2.30;;;;;;;8.37;82.98;97807.08;108875;1250;100000;-74
2023/05/18 05:26:12;;;;;;;4.40;2.20;;;;;;;8.28;82.77;97809.55;108865;1250;95788;-73
2023/05/18 05:28:40;;;;;;;3.90;2.40;;;;;;;8.23;82.78;97816.80;108910;1250;97050;-73
2023/05/18 05:31:08;;;;;;;6.00;3.80;;;;;;;8.18;82.68;97818.67;108771;1250;102095;-77
2023/05/18 05:33:36;;;;;;;4.00;2.30;;;;;;;8.13;82.73;97822.46;108896;1250;101252;-74
2023/05/18 05:36:04;;;;;;;3.90;2.60;;;;;;;8.11;82.70;97823.33;108577;1250;99567;-73
2023/05/18 05:38:32;;;;;;;4.50;2.60;;;;;;;8.09;82.72;97822.20;108834;1250;95824;-73
2023/05/18 05:41:01;;;;;;;5.10;2.60;;;;;;;8.06;82.72;97829.52;108881;1250;96047;-75
2023/05/18 05:43:29;;;;;;;4.30;2.70;;;;;;;8.03;82.64;97834.55;108675;1250;103396;-73
2023/05/18 05:45:57;;;;;;;5.40;2.50;;;;;;;8.02;82.54;97835.23;108901;1250;101206;-73
2023/05/18 05:48:25;;;;;;;5.70;3.00;;;;;;;8.00;82.61;97834.55;108921;1250;100079;-77
2023/05/18 05:50:53;;;;;;;5.80;2.40;;;;;;;7.97;82.48;97835.63;108834;1250;95595;-74
2023/05/18 05:53:22;;;;;;;5.50;2.10;;;;;;;7.89;82.31;97841.58;108888;1250;96006;-74
2023/05/18 05:55:50;;;;;;;6.40;2.60;;;;;;;7.85;82.52;97840.23;108895;1250;103465;-73
2023/05/18 05:58:18;;;;;;;4.40;1.90;;;;;;;7.86;82.60;97839.05;108922;1250;101354;-73
2023/05/18 06:00:47;;;;;;;3.80;2.80;;;;;;;7.87;82.62;97842.73;108795;1250;109705;-74
2023/05/18 06:03:15;;;;;;;3.20;2.40;;;;;;;7.87;82.66;97840.92;108891;1250;95858;-73
2023/05/18 06:05:43;;;;;;;4.80;2.40;;;;;;;7.86;82.68;97842.61;108913;1250;95992;-74
2023/05/18 06:08:11;;;;;;;4.40;2.20;;;;;;;7.85;82.63;97846.02;108885;1250;103219;-73
2023/05/18 06:10:40;;;;;;;5.50;2.40;;;;;;;7.85;82.74;97851.86;108899;1250;101685;-75
2023/05/18 06:13:08;;;;;;;3.50;2.50;;;;;;;7.89;82.82;97854.28;108892;1250;100052;-74
2023/05/18 06:15:36;;;;;;;4.30;2.50;;;;;;;7.94;82.94;97853.58;108582;1251;95853;-76
2023/05/18 06:18:04;;;;;;;4.30;2.40;;;;;;;7.94;82.94;97855.33;108849;1250;97107;-75
2023/05/18 06:20:32;;;;;;;4.90;2.60;;;;;;;7.94;82.93;97854.58;108969;1249;103503;-74
2023/05/18 06:23:01;;;;;;;5.40;2.30;;;;;;;7.92;82.89;97854.83;108998;1250;101395;-74
2023/05/18 06:25:29;;;;;;;5.70;2.70;;;;;;;7.91;82.86;97857.66;108864;1250;99917;-75
2023/05/18 06:27:57;;;;;;;4.50;2.60;;;;;;;7.90;82.82;97858.08;108833;1250;95711;-77
2023/05/18 06:30:25;;;;;;;3.30;2.40;;;;;;;7.90;82.73;97857.03;108853;1250;96041;-74
2023/05/18 06:32:53;;;;;;;5.40;2.50;;;;;;;7.91;82.89;97861.80;108905;1250;103414;-77
2023/05/18 06:35:22;;;;;;;3.70;2.40;;;;;;;7.92;83.01;97863.80;108597;1251;100969;-75
2023/05/18 06:37:50;;;;;;;4.80;2.80;;;;;;;7.94;82.98;97866.08;108895;1250;99548;-77
2023/05/18 06:40:18;;;;;;;4.80;2.60;;;;;;;7.97;82.99;97866.23;108877;1250;95505;-73
2023/05/18 06:42:46;;;;;;;5.30;2.80;;;;;;;7.99;82.91;97869.20;108913;1250;96067;-74
2023/05/18 06:45:14;;;;;;;8.80;3.20;;;;;;;8.02;83.02;97868.38;108891;1250;112423;-74
2023/05/18 06:47:43;;;;;;;8.30;3.50;;;;;;;8.05;83.21;97868.35;108610;1251;101282;-76
2023/05/18 06:50:11;;;;;;;6.70;3.80;;;;;;;8.06;83.30;97868.44;108877;1250;98984;-73
2023/05/18 06:52:39;;;;;;;8.60;3.80;;;;;;;8.06;83.20;97869.61;108894;1250;95642;-76
2023/05/18 06:55:07;;;;;;;7.90;3.90;;;;;;;8.08;83.02;97875.55;108921;1250;95619;-75
2023/05/18 06:57:35;;;;;;;6.20;3.50;;;;;;;8.09;83.01;97876.21;108912;1250;103078;-74
2023/05/18 07:00:06;;;;;;;9.10;4.00;;;;;;;8.10;83.01;97879.57;108905;1250;101478;-76
2023/05/18 07:02:34;;;;;;;4.50;3.00;;;;;;;8.12;83.14;97879.31;108871;1250;100071;-76
2023/05/18 07:05:05;;;;;;;6.50;3.30;;;;;;;8.17;83.23;97881.05;108708;1250;95926;-74
2023/05/18 07:07:33;;;;;;;6.70;2.60;;;;;;;8.20;83.06;97883.34;108913;1250;96501;-75
2023/05/18 07:10:02;;;;;;;6.20;2.60;;;;;;;8.23;83.03;97884.60;108678;1255;103519;-77
2023/05/18 07:12:30;;;;;;;5.10;2.70;;;;;;;8.26;83.10;97883.30;108676;1249;101423;-74
2023/05/18 07:14:58;;;;;;;3.70;2.50;;;;;;;8.26;82.99;97883.42;108665;1250;98841;-75
2023/05/18 07:17:26;;;;;;;4.20;2.50;;;;;;;8.27;82.97;97887.86;108716;1250;95565;-74
2023/05/18 07:19:54;;;;;;;5.20;2.30;;;;;;;8.28;82.85;97888.96;108973;1250;96022;-74
2023/05/18 07:22:22;;;;;;;2.40;2.10;;;;;;;8.26;82.79;97892.64;108930;1250;103239;-74
2023/05/18 07:24:51;;;;;;;2.40;1.80;;;;;;;8.23;82.52;97895.70;108943;1250;101277;-75
2023/05/18 07:27:19;;;;;;;3.30;1.90;;;;;;;8.21;82.45;97896.49;108877;1250;99965;-74
2023/05/18 07:29:47;;;;;;;4.40;2.20;;;;;;;8.17;82.48;97898.64;108895;1250;96010;-74
2023/05/18 07:32:15;;;;;;;2.40;1.80;;;;;;;8.14;82.44;97896.60;108916;1250;96129;-74
2023/05/18 07:34:45;;;;;;;4.10;2.30;;;;;;;8.15;82.61;97895.46;108907;1249;103614;-73
2023/05/18 07:37:13;;;;;;;3.90;1.90;;;;;;;8.16;82.44;97901.73;108947;1250;101337;-75
2023/05/18 07:39:42;;;;;;;4.10;1.90;;;;;;;8.15;82.37;97902.41;108893;1250;99767;-74
2023/05/18 07:42:10;;;;;;;2.70;1.80;;;;;;;8.15;82.31;97901.55;108889;1250;95553;-74
2023/05/18 07:44:38;;;;;;;3.50;2.00;;;;;;;8.17;82.33;97901.16;108890;1250;96031;-75
2023/05/18 07:47:06;;;;;;;4.00;1.80;;;;;;;8.20;82.38;97905.59;108907;1250;103554;-74
2023/05/18 07:49:34;;;;;;;2.70;2.00;;;;;;;8.20;82.21;97906.88;108905;1249;101323;-74
2023/05/18 07:52:02;;;;;;;3.90;2.50;;;;;;;8.19;82.10;97906.38;108884;1250;106860;-76
2023/05/18 07:54:31;;;;;;;4.10;2.40;;;;;;;8.19;82.33;97908.86;108579;1255;95726;-75
2023/05/18 07:56:59;;;;;;;4.90;2.50;;;;;;;8.23;82.29;97907.20;108934;1250;96029;-74
2023/05/18 07:59:27;;;;;;;4.80;2.70;;;;;;;8.27;82.15;97908.35;108649;1255;103503;-76
2023/05/18 08:01:57;;;;;;;6.90;2.50;;;;;;;8.30;82.17;97910.10;108664;1250;101309;-74
2023/05/18 08:04:25;;;;;;;4.20;2.50;;;;;;;8.34;82.09;97910.38;108900;1250;99287;-74
2023/05/18 08:06:55;;;;;;;3.90;2.50;;;;;;;8.37;82.11;97910.20;108924;1249;95545;-74
2023/05/18 08:09:23;;;;;;;2.70;1.80;;;;;;;8.40;81.93;97909.27;108818;1250;95972;-74
2023/05/18 08:11:51;;;;;;;3.30;1.90;;;;;;;8.41;82.00;97907.25;108946;1250;112048;-74
2023/05/18 08:14:19;;;;;;;3.70;2.10;;;;;;;8.39;81.64;97910.33;108927;1251;101268;-76
2023/05/18 08:16:47;;;;;;;5.00;2.00;;;;;;;8.40;81.65;97909.48;108916;1250;99905;-74
2023/05/18 08:19:16;;;;;;;6.10;2.10;;;;;;;8.45;81.80;97914.59;108929;1250;95519;-77
2023/05/18 08:21:45;;;;;;;6.30;2.40;;;;;;;8.48;81.66;97914.21;108924;1250;96019;-74
2023/05/18 08:24:13;;;;;;;4.30;2.30;;;;;;;8.50;81.65;97913.41;108905;1250;103340;-75
2023/05/18 08:26:41;;;;;;;4.60;2.00;;;;;;;8.50;81.45;97914.17;108579;1250;101136;-73
2023/05/18 08:29:09;;;;;;;3.50;2.10;;;;;;;8.53;81.53;97914.34;108388;1250;99144;-74
2023/05/18 08:31:39;;;;;;;5.70;2.40;;;;;;;8.55;81.16;97918.72;108872;1250;95948;-75
2023/05/18 08:34:08;;;;;;;4.60;2.50;;;;;;;8.58;81.23;97921.80;108716;1250;95772;-76
2023/05/18 08:36:37;;;;;;;5.60;2.40;;;;;;;8.64;81.45;97922.31;108904;1250;103591;-76
2023/05/18 08:39:05;;;;;;;6.30;2.30;;;;;;;8.68;81.43;97923.11;108792;1250;101272;-74
2023/05/18 08:41:39;;;;;;;5.40;3.30;;;;;;;8.70;81.42;97920.38;108861;1250;98886;-75
2023/05/18 08:44:21;;;;;;;6.40;3.00;;;;;;;8.72;81.38;97922.31;108811;1251;95915;-75
2023/05/18 08:46:50;;;;;;;3.80;2.70;;;;;;;8.71;81.29;97921.31;108849;1250;95846;-75
2023/05/18 08:49:20;;;;;;;4.00;2.80;;;;;;;8.70;81.27;97922.54;108871;1250;103399;-77
2023/05/18 08:52:00;;;;;;;4.50;2.90;;;;;;;8.69;81.03;97922.66;108853;1250;101499;-77
2023/05/18 08:54:30;;;;;;;6.20;2.70;;;;;;;8.70;81.07;97925.50;108866;1251;98960;-75
2023/05/18 08:56:59;;;;;;;5.70;1.90;;;;;;;8.72;81.03;97922.94;108572;1250;97051;-75
2023/05/18 08:59:33;;;;;;;6.80;2.40;;;;;;;8.70;80.79;97921.39;108851;1250;96106;-74
2023/05/18 09:02:01;;;;;;;4.80;3.00;;;;;;;8.67;80.49;97922.36;108556;1250;198050;-75
2023/05/18 09:04:30;;;;;;;3.40;2.50;;;;;;;8.64;80.36;97924.17;108900;1250;101203;-74
2023/05/18 09:07:01;;;;;;;5.50;2.20;;;;;;;8.60;80.37;97923.12;108811;1250;99725;-75
2023/05/18 09:09:29;;;;;;;4.30;2.40;;;;;;;8.60;80.35;97920.80;108792;1250;95618;-75
2023/05/18 09:11:58;;;;;;;3.80;2.20;;;;;;;8.62;80.59;97918.50;108706;1250;96066;-74
2023/05/18 09:14:26;;;;;;;4.00;2.40;;;;;;;8.62;80.57;97922.77;108627;1251;103125;-74
2023/05/18 09:16:55;;;;;;;4.50;2.00;;;;;;;8.64;80.72;97918.04;108879;1250;101854;-75
2023/05/18 09:19:24;;;;;;;4.70;2.90;;;;;;;8.66;80.60;97917.25;108887;1250;99936;-75
2023/05/18 09:21:52;;;;;;;6.70;2.60;;;;;;;8.71;80.81;97916.30;108461;1251;95701;-74
2023/05/18 09:24:21;;;;;;;7.30;2.60;;;;;;;8.70;80.49;97914.89;108884;1250;96064;-75
2023/05/18 09:26:50;;;;;;;4.40;2.20;;;;;;;8.69;80.38;97913.31;108873;1250;103506;-74
2023/05/18 09:29:20;;;;;;;7.10;2.00;;;;;;;8.68;80.22;97916.49;108837;1250;101426;-75
2023/05/18 09:31:48;;;;;;;3.80;2.10;;;;;;;8.67;80.13;97916.20;108684;1250;99009;-75
2023/05/18 09:34:18;;;;;;;4.00;2.10;;;;;;;8.69;80.06;97914.76;108800;1251;95577;-77
2023/05/18 09:36:52;;;;;;;3.60;2.30;;;;;;;8.70;80.00;97911.13;108892;1250;96058;-77
2023/05/18 09:39:20;;;;;;;6.40;2.50;;;;;;;8.73;80.07;97907.35;108870;1250;103675;-75
2023/05/18 09:41:55;;;;;;;3.80;1.80;;;;;;;8.76;79.98;97905.58;108903;1250;101429;-74
2023/05/18 09:44:37;;;;;;;6.80;2.80;;;;;;;8.79;80.08;97905.54;108855;1251;99878;-74
2023/05/18 09:47:09;;;;;;;8.80;2.90;;;;;;;8.79;79.87;97907.40;108645;1251;95563;-74
2023/05/18 09:49:37;;;;;;;5.00;2.40;;;;;;;8.79;79.89;97911.91;108847;1251;95647;-74
2023/05/18 09:52:08;;;;;;;5.20;2.70;;;;;;;8.79;79.93;97916.68;108808;1251;103562;-75
2023/05/18 09:54:37;;;;;;;4.70;2.60;;;;;;;8.79;79.72;97917.30;108745;1250;109871;-78
2023/05/18 09:57:06;;;;;;;12.80;2.90;;;;;;;8.76;79.58;97917.21;108731;1250;98630;-74
2023/05/18 09:59:36;;;;;;;3.10;2.00;;;;;;;8.73;79.53;97920.02;108814;1251;95542;-75
2023/05/18 10:02:07;;;;;;;3.80;2.00;;;;;;;8.69;79.24;97920.63;108801;1251;96019;-74
2023/05/18 10:04:43;;;;;;;3.60;1.80;;;;;;;8.63;79.15;97922.92;108798;1251;103714;-74
2023/05/18 10:07:16;;;;;;;6.60;2.10;;;;;;;8.61;79.28;97923.05;108657;1254;101241;-78
2023/05/18 10:09:47;;;;;;;3.50;2.30;;;;;;;8.61;79.48;97921.10;108746;1251;100027;-75
2023/05/18 10:12:17;;;;;;;3.80;2.50;;;;;;;8.61;79.56;97921.27;108754;1251;95910;-77
2023/05/18 10:14:46;;;;;;;4.70;3.10;;;;;;;8.62;79.59;97924.72;108804;1251;96131;-74
2023/05/18 10:17:16;;;;;;;4.90;2.50;;;;;;;8.64;79.64;97925.58;108816;1251;103168;-77
2023/05/18 10:19:45;;;;;;;3.40;2.10;;;;;;;8.65;79.50;97926.47;108857;1250;101546;-75
2023/05/18 10:22:16;;;;;;;4.20;2.40;;;;;;;8.64;79.36;97925.87;108967;1249;99665;-75
2023/05/18 10:24:49;;;;;;;5.30;2.10;;;;;;;8.64;79.28;97927.49;108946;1250;95788;-75
2023/05/18 10:27:18;;;;;;;2.30;1.70;;;;;;;8.62;79.31;97933.70;108602;1250;96087;-75
2023/05/18 10:29:46;;;;;;;2.90;1.90;;;;;;;8.60;79.31;97934.09;108743;1251;103426;-77
2023/05/18 10:32:16;;;;;;;4.10;2.10;;;;;;;8.59;79.48;97935.04;108792;1251;101339;-75
2023/05/18 10:34:45;;;;;;;3.50;1.60;;;;;;;8.61;79.64;97938.79;108819;1250;99494;-76
2023/05/18 10:37:16;;;;;;;3.30;2.20;;;;;;;8.63;79.75;97942.50;108779;1251;95715;-78
2023/05/18 10:39:45;;;;;;;2.80;1.50;;;;;;;8.64;79.65;97942.02;108842;1251;95956;-75
2023/05/18 10:42:16;;;;;;;2.20;1.50;;;;;;;8.62;79.31;97940.69;108865;1250;103795;-75
2023/05/18 10:44:45;;;;;;;2.80;1.60;;;;;;;8.60;79.33;97942.53;108833;1251;101444;-75
2023/05/18 10:47:15;;;;;;;5.00;1.70;;;;;;;8.59;79.59;97942.98;108532;1251;98080;-75
2023/05/18 10:49:43;;;;;;;2.70;1.60;;;;;;;8.57;79.40;97942.88;108794;1251;95859;-75
2023/05/18 10:52:13;;;;;;;3.80;1.40;;;;;;;8.56;79.58;97942.94;108842;1250;96075;-75
2023/05/18 10:54:42;;;;;;;3.40;2.00;;;;;;;8.55;79.70;97944.95;108679;1251;103502;-77
2023/05/18 10:57:13;;;;;;;4.20;2.10;;;;;;;8.55;79.77;97947.69;108840;1250;101619;-75
2023/05/18 10:59:44;;;;;;;4.20;1.90;;;;;;;8.53;79.60;97946.84;108804;1251;100209;-74
2023/05/18 11:02:18;;;;;;;4.40;2.10;;;;;;;8.53;79.75;97944.48;108774;1251;95553;-75
2023/05/18 11:04:47;;;;;;;3.20;1.80;;;;;;;8.56;79.82;97941.29;108811;1251;95953;-75
2023/05/18 11:07:16;;;;;;;3.70;2.60;;;;;;;8.58;79.90;97943.48;108796;1251;103544;-76
2023/05/18 11:09:45;;;;;;;5.50;2.50;;;;;;;8.60;79.96;97939.51;108856;1251;101119;-74
2023/05/18 11:12:14;;;;;;;5.40;2.60;;;;;;;8.62;79.99;97941.75;108782;1252;99128;-74
2023/05/18 11:14:56;;;;;;;4.50;2.70;;;;;;;8.67;80.07;97942.84;108827;1251;95674;-75
2023/05/18 11:17:26;;;;;;;2.70;1.90;;;;;;;8.71;80.12;97948.02;108875;1250;95678;-77
2023/05/18 11:20:04;;;;;;;3.50;2.00;;;;;;;8.71;79.93;97944.59;108894;1250;103960;-74
2023/05/18 11:22:51;;;;;;;3.40;2.00;;;;;;;8.73;79.96;97945.98;108909;1250;101360;-75
2023/05/18 11:25:28;;;;;;;4.20;1.80;;;;;;;8.78;80.10;97948.42;108895;1250;100250;-75
2023/05/18 11:28:04;;;;;;;4.60;2.20;;;;;;;8.79;79.95;97945.05;108856;1251;95548;-75
2023/05/18 11:30:35;;;;;;;4.80;2.50;;;;;;;8.80;79.87;97943.83;108898;1251;96349;-75
2023/05/18 11:33:10;;;;;;;2.90;2.00;;;;;;;8.83;79.92;97946.90;108873;1251;103665;-75
2023/05/18 11:36:10;;;;;;;4.50;1.70;;;;;;;8.85;79.99;97950.27;108882;1251;110183;-77
2023/05/18 11:38:54;;;;;;;3.00;1.60;;;;;;;8.89;80.05;97950.67;108885;1250;99657;-75
2023/05/18 11:41:38;;;;;;;2.60;1.60;;;;;;;8.94;80.27;97954.13;108883;1251;95829;-75